Danbury, TX

7:57 AM CDT on May 22, 2015 (GMT -0500)
Danbury, TX | | Change Station
CLOSE
Current Station
Personal Weather Station
Location: Liverpool, TX
Elevation: 20 ft
Nearby Weather Stations
Active Advisory: Flood Warning

Elev 20 ft 29.23 °N, 95.24 °W | Updated 56 minutes ago

Overcast
Overcast
70.3 °F
Feels Like 70.3 °F
N
5.0
Wind Variable Wind from ENE
Gusts 16.0 mph

Today
High -- | Low -- °F
--% Chance of Precip.
Yesterday
High -- | Low -- °F
Precip. -- in
6:25 AM 8:10 PM
Waxing Crescent, 21% visible
Pressure 30.09 in
Visibility 10.0 miles
Clouds Mostly Cloudy 900 ft
Mostly Cloudy 12000 ft
Dew Point 68 °F
Humidity 94%
Rainfall 0.00 in
Snow Depth Not available.
UV 0 out of 12
Pollen 3.80 out of 12
Air Quality Not available.
Flu Activity Sporadic
SPECI KLBX 221230Z AUTO 06010G16KT 10SM BKN009 BKN120 20/20 A3009 RMK AO2 T02000200

More Conditions Fewer Conditions

Pressure 30.09 in
Visibility 10.0 miles
Clouds Mostly Cloudy 900 ft
Mostly Cloudy 12000 ft
Dew Point 68 °F
Humidity 94%
Rainfall 0.00 in
Snow Depth Not available.
UV 0 out of 12
Pollen 3.80 out of 12
Air Quality Not available.
Flu Activity Sporadic
SPECI KLBX 221230Z AUTO 06010G16KT 10SM BKN009 BKN120 20/20 A3009 RMK AO2 T02000200

More Conditions Fewer Conditions

10-Day Weather Forecast

Almanac

Astronomy

May. 22, 2015 Rise Set
Actual Time
Civil Twilight
Nautical Twilight
Astronomical Twilight
Moon
Length of Visible Light
Length of Day
Tomorrow will be .
, % of the Moon is Illuminated

Today's Extremes

State Highs State Lows

Community

WunderPhotos

Upload Photos

1,823,209 photos uploaded!

WunderBlogs® & News

Nearby

Air Quality

  Air Quality AQ Index Pollutant
Not available.

Snow Depth

Station Depth Elevation

Earthquake Activity

City Distance Mag. Time & Date
Minimum magnitude displayed is 2.5.

Coastal Water Temperatures

Place Temperature

Stations

Nearby Weather Stations

Station Location Temp. Windchill Dew Point Humidity Wind Precip. Elev Updated Type
                   
Flood Warning
Statement as of 10:13 PM CDT on May 21, 2015

... Flood Warning extended until Saturday evening... the Flood Warning continues
for
the Brazos river near Rosharon
* until Saturday evening... or until the warning is canceled.
* At 0946 PM Thursday the stage was 43.2 feet.
* Minor flooding is occurring and minor flooding is forecast.
* Flood stage is 43.0 feet.
* Forecast... the river will crest around 44.0 feet on Friday.


Lat... Lon 2943 9549 2932 9552 2919 9552 2919 9563 2932 9566 2943 9561





                     flood observed forecast 6 PM
location stage stage day time Fri Sat sun Mon

Brazos river
Rosharon 43 43.2 Thu 10 PM 44.0 41.6 38.9 36.4